Time;durP1;ratioP1;P1;durP2;ratioP2;P2;SDS_P1;SDS_P2;PMS_P1;PMS_P2;Temp;Humidity;BMP_temperature;BMP_pressure;BME280_temperature;BME280_humidity;BME280_pressure;Samples;Min_cycle;Max_cycle;Signal;HPM_P1;HPM_P2
2022/12/20 00:01:09;;;;;;;1999.90;999.90;;;12.60;99.90;;;;;;5030523;28;20045;-86
2022/12/20 00:03:36;;;;;;;1999.90;999.90;;;13.40;99.90;;;;;;5032774;28;20103;-87
2022/12/20 00:06:02;;;;;;;1999.90;999.90;;;12.70;99.90;;;;;;4996616;28;20111;-85
2022/12/20 00:08:28;;;;;;;1999.90;999.90;;;12.90;99.90;;;;;;5012882;28;20377;-85
2022/12/20 00:10:54;;;;;;;1999.90;999.90;;;12.90;99.90;;;;;;5015557;28;20053;-85
2022/12/20 00:13:19;;;;;;;1999.90;999.90;;;12.90;99.90;;;;;;5017259;28;20493;-86
2022/12/20 00:15:45;;;;;;;1999.90;999.90;;;14.30;99.90;;;;;;5013790;28;20053;-86
2022/12/20 00:18:11;;;;;;;1999.90;999.90;;;12.60;99.90;;;;;;5012691;28;20046;-86
2022/12/20 00:20:37;;;;;;;1999.90;999.90;;;13.30;99.90;;;;;;4992980;28;20553;-86
2022/12/20 00:23:03;;;;;;;1999.90;999.90;;;12.70;99.90;;;;;;5011507;28;20041;-86
2022/12/20 00:25:29;;;;;;;1999.90;999.90;;;13.00;99.90;;;;;;5030075;28;20041;-87
2022/12/20 00:27:54;;;;;;;1999.90;999.90;;;12.60;99.90;;;;;;5025231;28;20696;-85
2022/12/20 00:30:20;;;;;;;1999.90;999.90;;;13.00;99.90;;;;;;4998159;28;20045;-86
2022/12/20 00:32:46;;;;;;;1999.90;999.90;;;12.70;99.90;;;;;;4995551;28;20049;-89
2022/12/20 00:35:12;;;;;;;1999.90;999.90;;;;;;;;;;5011820;28;20107;-89
2022/12/20 00:37:38;;;;;;;1999.90;999.90;;;13.20;99.90;;;;;;5009685;28;20045;-85
2022/12/20 00:40:05;;;;;;;1999.90;999.90;;;12.70;99.90;;;;;;4998707;28;20045;-85
2022/12/20 00:42:31;;;;;;;1999.90;999.90;;;12.90;99.90;;;;;;5009283;28;20820;-85
2022/12/20 00:44:56;;;;;;;1999.90;999.90;;;13.20;99.90;;;;;;4996590;28;20049;-85
2022/12/20 00:47:22;;;;;;;1999.90;999.90;;;14.30;99.90;;;;;;5009313;28;20049;-85
2022/12/20 00:49:48;;;;;;;1999.90;999.90;;;13.10;99.90;;;;;;5015449;28;20037;-85
2022/12/20 00:52:14;;;;;;;1999.90;999.90;;;13.10;99.90;;;;;;5011630;28;20430;-89
2022/12/20 00:54:39;;;;;;;1999.90;999.90;;;12.90;99.90;;;;;;4995815;28;20049;-84
2022/12/20 00:57:05;;;;;;;1999.90;999.90;;;12.80;99.90;;;;;;4998984;28;20049;-85
2022/12/20 00:59:32;;;;;;;1999.90;999.90;;;13.40;99.90;;;;;;5015732;28;20136;-88
2022/12/20 01:01:58;;;;;;;1999.90;999.90;;;13.20;99.90;;;;;;5010915;28;20061;-85
2022/12/20 01:04:24;;;;;;;1999.90;999.90;;;12.90;99.90;;;;;;5012187;28;20509;-85
2022/12/20 01:06:50;;;;;;;1999.90;999.90;;;;;;;;;;5010252;28;20061;-85
2022/12/20 01:09:16;;;;;;;1999.90;999.90;;;;;;;;;;5020165;28;20088;-90
2022/12/20 01:11:42;;;;;;;1999.90;999.90;;;13.20;99.90;;;;;;5024134;28;20129;-83
2022/12/20 01:14:14;;;;;;;1999.90;999.90;;;13.20;99.90;;;;;;5011038;28;20145;-84
2022/12/20 01:16:45;;;;;;;1999.90;999.90;;;13.10;99.90;;;;;;5022463;28;20042;-86
2022/12/20 01:19:14;;;;;;;1999.90;999.90;;;13.00;99.90;;;;;;5027029;28;20180;-86
2022/12/20 01:21:43;;;;;;;1999.90;999.90;;;13.10;99.90;;;;;;5007359;28;20150;-87
2022/12/20 01:24:15;;;;;;;1999.90;999.90;;;11.80;99.90;;;;;;5031986;28;20077;-88
2022/12/20 01:26:41;;;;;;;1999.90;999.90;;;13.00;99.90;;;;;;5031051;28;20047;-84
2022/12/20 01:29:07;;;;;;;1999.90;999.90;;;13.20;99.90;;;;;;4982844;28;20042;-85
2022/12/20 01:31:33;;;;;;;1999.90;999.90;;;13.10;99.90;;;;;;4992293;28;20049;-86
2022/12/20 01:34:00;;;;;;;1999.90;999.90;;;12.80;99.90;;;;;;4992152;28;20041;-84
2022/12/20 01:36:31;;;;;;;1999.90;999.90;;;12.20;99.90;;;;;;5008087;28;20117;-86
2022/12/20 01:39:08;;;;;;;1999.90;999.90;;;13.00;99.90;;;;;;5013072;28;20041;-84
2022/12/20 01:41:35;;;;;;;1999.90;999.90;;;13.10;99.90;;;;;;5029296;28;20057;-90
2022/12/20 01:44:16;;;;;;;1999.90;999.90;;;13.10;99.90;;;;;;5013611;28;20083;-85
2022/12/20 01:46:46;;;;;;;1999.90;999.90;;;13.00;99.90;;;;;;4992093;28;20564;-86
2022/12/20 01:49:18;;;;;;;1999.90;999.90;;;12.00;99.90;;;;;;5025594;28;20068;-86
2022/12/20 01:51:59;;;;;;;1999.90;999.90;;;14.30;99.90;;;;;;4993471;28;20095;-84
2022/12/20 01:54:33;;;;;;;1999.90;999.90;;;12.90;99.90;;;;;;4993210;28;20049;-84
2022/12/20 01:57:04;;;;;;;1999.90;999.90;;;13.20;99.90;;;;;;5008417;28;20466;-83
2022/12/20 01:59:36;;;;;;;1999.90;999.90;;;12.70;99.90;;;;;;5008214;28;20056;-85
2022/12/20 02:02:06;;;;;;;1999.90;999.90;;;11.40;99.90;;;;;;5007084;28;20140;-87
2022/12/20 02:04:32;;;;;;;1999.90;999.90;;;13.10;99.90;;;;;;5007748;28;20471;-84
2022/12/20 02:06:59;;;;;;;1999.90;999.90;;;13.10;99.90;;;;;;5023692;28;20045;-84
2022/12/20 02:09:25;;;;;;;1999.90;999.90;;;13.90;99.90;;;;;;5006487;28;20068;-90
2022/12/20 02:11:57;;;;;;;1999.90;999.90;;;14.40;99.90;;;;;;5010176;28;20054;-84
2022/12/20 02:14:56;;;;;;;1999.90;999.90;;;13.10;99.90;;;;;;4999166;28;20073;-87
2022/12/20 02:17:36;;;;;;;1999.90;999.90;;;12.70;99.90;;;;;;5010737;28;20113;-84
2022/12/20 02:20:06;;;;;;;1999.90;999.90;;;12.90;99.90;;;;;;5011635;28;20493;-84
2022/12/20 02:22:59;;;;;;;1999.90;999.90;;;12.70;99.90;;;;;;5013445;28;20474;-84
2022/12/20 02:26:16;;;;;;;1999.90;999.90;;;12.00;99.90;;;;;;4998942;28;20080;-89
2022/12/20 02:29:13;;;;;;;1999.90;999.90;;;12.80;99.90;;;;;;4971830;28;20085;-84
2022/12/20 02:31:45;;;;;;;1999.90;999.90;;;12.80;99.90;;;;;;5002405;28;20076;-85
2022/12/20 02:34:12;;;;;;;1999.90;999.90;;;12.70;99.90;;;;;;5014212;28;20051;-84
2022/12/20 02:36:38;;;;;;;1999.90;999.90;;;12.70;99.90;;;;;;5013690;28;20505;-82
2022/12/20 02:39:04;;;;;;;1999.90;999.90;;;13.90;99.90;;;;;;5015223;28;20053;-85
2022/12/20 02:41:37;;;;;;;1999.90;999.90;;;12.60;99.90;;;;;;5032588;28;20052;-85
2022/12/20 02:46:55;;;;;;;1999.90;999.90;;;12.50;99.90;;;;;;5012965;28;20053;-88
2022/12/20 02:49:24;;;;;;;1999.90;999.90;;;12.40;47.40;;;;;;5007481;28;20485;-86
2022/12/20 02:51:53;;;;;;;1999.90;999.90;;;12.50;1.00;;;;;;5015138;28;20057;-89
2022/12/20 02:54:19;;;;;;;1999.90;999.90;;;12.40;1.00;;;;;;5014525;28;20041;-87
2022/12/20 02:57:24;;;;;;;1999.90;999.90;;;12.40;1.00;;;;;;5006893;28;20458;-86
2022/12/20 03:00:07;;;;;;;1999.90;999.90;;;12.40;99.90;;;;;;5008402;28;20049;-90
2022/12/20 03:03:21;;;;;;;1999.90;999.90;;;12.70;99.90;;;;;;4990915;28;20129;-85
2022/12/20 03:05:22;;;;;;;1999.90;999.90;;;12.90;99.90;;;;;;5014546;28;20049;-87
2022/12/20 03:07:52;;;;;;;1999.90;999.90;;;12.50;99.90;;;;;;4998739;28;20566;-87
2022/12/20 03:10:19;;;;;;;1999.90;999.90;;;12.80;99.90;;;;;;4999793;28;20072;-87
2022/12/20 03:12:45;;;;;;;1999.90;999.90;;;12.60;99.90;;;;;;5015745;28;20128;-85
2022/12/20 03:15:11;;;;;;;1999.90;999.90;;;11.80;99.90;;;;;;5009753;28;20539;-87
2022/12/20 03:17:39;;;;;;;1999.90;999.90;;;12.80;99.90;;;;;;4983553;28;20049;-86
2022/12/20 03:20:06;;;;;;;1999.90;999.90;;;12.60;99.90;;;;;;4999432;28;20056;-84
2022/12/20 03:22:33;;;;;;;1999.90;999.90;;;13.20;99.90;;;;;;5016232;28;20048;-88
2022/12/20 03:24:59;;;;;;;1999.90;999.90;;;13.10;99.90;;;;;;5033484;28;20510;-86
2022/12/20 03:27:27;;;;;;;1999.90;999.90;;;12.70;99.90;;;;;;5016170;28;20288;-85
2022/12/20 03:29:53;;;;;;;1999.90;999.90;;;13.00;99.90;;;;;;4976030;28;20052;-87
2022/12/20 03:32:19;;;;;;;1999.90;999.90;;;12.60;99.90;;;;;;5011232;28;20128;-88
2022/12/20 03:34:45;;;;;;;1999.90;999.90;;;12.70;99.90;;;;;;5031897;28;20156;-87
2022/12/20 03:37:11;;;;;;;1999.90;999.90;;;12.90;99.90;;;;;;4999836;28;20041;-88
2022/12/20 03:39:36;;;;;;;1999.90;999.90;;;13.30;99.90;;;;;;5015574;28;20041;-88
2022/12/20 03:42:02;;;;;;;1999.90;999.90;;;13.10;99.90;;;;;;4998391;28;20049;-88
2022/12/20 03:44:30;;;;;;;1999.90;999.90;;;13.10;99.90;;;;;;4999152;28;20085;-87
2022/12/20 03:46:56;;;;;;;;;;;13.40;99.90;;;;;;5014367;28;20038;-87
2022/12/20 03:49:22;;;;;;;1999.90;999.90;;;13.10;99.90;;;;;;4998758;28;20011;-84
2022/12/20 03:51:48;;;;;;;1999.90;999.90;;;13.10;99.90;;;;;;5011848;28;20058;-86
2022/12/20 03:54:16;;;;;;;1999.90;999.90;;;12.90;99.90;;;;;;5011334;28;20546;-85
2022/12/20 03:56:42;;;;;;;1999.90;999.90;;;14.80;99.90;;;;;;4995965;28;20414;-86
2022/12/20 03:59:09;;;;;;;1999.90;999.90;;;13.10;99.90;;;;;;4993719;28;20096;-86
2022/12/20 04:01:37;;;;;;;;;;;13.20;99.90;;;;;;5027425;28;20969;-93
2022/12/20 04:04:04;;;;;;;1999.90;999.90;;;13.20;99.90;;;;;;5012894;28;20063;-86
2022/12/20 04:06:32;;;;;;;1999.90;999.90;;;13.30;99.90;;;;;;5015179;28;20038;-86
2022/12/20 04:08:58;;;;;;;1999.90;999.90;;;13.30;99.90;;;;;;5015534;28;20053;-86
2022/12/20 04:11:23;;;;;;;1999.90;999.90;;;13.50;99.90;;;;;;5013476;28;20493;-90
2022/12/20 04:13:51;;;;;;;1999.90;999.90;;;13.40;99.90;;;;;;5014439;28;20049;-87
2022/12/20 04:16:20;;;;;;;1999.90;999.90;;;12.90;99.90;;;;;;4998261;28;20042;-85
2022/12/20 04:18:46;;;;;;;1999.90;999.90;;;13.20;99.90;;;;;;5013528;28;20121;-88
2022/12/20 04:21:13;;;;;;;1999.90;999.90;;;13.10;99.90;;;;;;5029337;28;20047;-84
2022/12/20 04:23:41;;;;;;;1999.90;999.90;;;13.60;99.90;;;;;;4999201;28;20115;-87
2022/12/20 04:26:08;;;;;;;1999.90;999.90;;;13.00;99.90;;;;;;4998132;28;20045;-87
2022/12/20 04:28:34;;;;;;;1999.90;999.90;;;13.20;99.90;;;;;;5012071;28;20041;-86
2022/12/20 04:31:00;;;;;;;1999.90;999.90;;;13.20;99.90;;;;;;5013882;28;20041;-85
2022/12/20 04:33:27;;;;;;;1999.90;999.90;;;13.40;99.90;;;;;;4993444;28;20050;-85
2022/12/20 04:35:54;;;;;;;1999.90;999.90;;;13.40;99.90;;;;;;5029545;28;20049;-85
2022/12/20 04:38:21;;;;;;;1999.90;999.90;;;13.00;99.90;;;;;;5013283;28;20042;-87
2022/12/20 04:40:51;;;;;;;1999.90;999.90;;;13.30;99.90;;;;;;5006892;28;20397;-86
2022/12/20 04:43:18;;;;;;;1999.90;999.90;;;;;;;;;;5011831;28;20091;-86
2022/12/20 04:45:46;;;;;;;1999.90;999.90;;;13.30;99.90;;;;;;5014160;28;20048;-85
2022/12/20 04:48:12;;;;;;;1999.90;999.90;;;13.70;99.90;;;;;;5011457;28;20049;-86
2022/12/20 04:50:38;;;;;;;1999.90;999.90;;;13.20;99.90;;;;;;5009904;28;20547;-86
2022/12/20 04:55:49;;;;;;;1999.90;999.90;;;13.60;99.90;;;;;;5015063;28;20053;-84
2022/12/20 04:58:15;;;;;;;1999.90;999.90;;;;;;;;;;5013382;28;20049;-83
2022/12/20 05:00:41;;;;;;;1999.90;999.90;;;13.90;99.90;;;;;;4999296;28;20517;-84
2022/12/20 05:03:07;;;;;;;1999.90;999.90;;;13.40;99.90;;;;;;5000014;28;20080;-85
2022/12/20 05:05:33;;;;;;;1999.90;999.90;;;14.00;99.90;;;;;;5017044;28;20037;-86
2022/12/20 05:07:58;;;;;;;1999.90;999.90;;;13.50;99.90;;;;;;5017706;28;20053;-87
2022/12/20 05:10:27;;;;;;;1999.90;999.90;;;13.80;99.90;;;;;;4998796;28;20056;-85
2022/12/20 05:12:53;;;;;;;1999.90;999.90;;;14.20;99.90;;;;;;4982632;28;20467;-84
2022/12/20 05:15:18;;;;;;;1999.90;999.90;;;14.00;99.90;;;;;;4984023;28;20128;-86
2022/12/20 05:17:44;;;;;;;1999.90;999.90;;;14.10;99.90;;;;;;5016962;28;20132;-89
2022/12/20 05:20:10;;;;;;;1999.90;999.90;;;14.30;99.90;;;;;;5000167;28;20095;-87
2022/12/20 05:28:04;;;;;;;1999.90;999.90;;;13.60;99.90;;;;;;5015622;28;20388;-82
2022/12/20 05:30:30;;;;;;;1999.90;999.90;;;14.00;99.90;;;;;;5008280;28;20129;-82
2022/12/20 05:32:56;;;;;;;1999.90;999.90;;;13.60;99.90;;;;;;5011038;28;20053;-82
2022/12/20 05:35:22;;;;;;;1999.90;999.90;;;14.10;99.90;;;;;;4979892;28;20041;-82
2022/12/20 05:37:47;;;;;;;1999.90;999.90;;;14.00;99.90;;;;;;5015463;28;20046;-83
2022/12/20 05:40:14;;;;;;;1999.90;999.90;;;14.10;99.90;;;;;;4994735;28;20074;-84
2022/12/20 05:42:40;;;;;;;1999.90;999.90;;;14.10;99.90;;;;;;4978818;28;20064;-83
2022/12/20 05:45:06;;;;;;;1999.90;999.90;;;13.50;99.90;;;;;;5015840;28;20271;-83
2022/12/20 05:47:32;;;;;;;1999.90;999.90;;;13.80;99.90;;;;;;4998280;28;20049;-83
2022/12/20 05:50:02;;;;;;;1999.90;999.90;;;14.10;99.90;;;;;;4989583;28;20064;-82
2022/12/20 05:52:29;;;;;;;1999.90;999.90;;;13.90;99.90;;;;;;4999477;28;20049;-79
2022/12/20 05:54:55;;;;;;;1999.90;999.90;;;14.00;99.90;;;;;;5011720;28;20049;-81
2022/12/20 05:57:21;;;;;;;1999.90;999.90;;;13.60;99.90;;;;;;5007447;28;20506;-79
2022/12/20 05:59:46;;;;;;;1999.90;999.90;;;13.60;99.90;;;;;;5005325;28;20037;-80
2022/12/20 06:02:12;;;;;;;1999.90;999.90;;;14.00;99.90;;;;;;5020000;28;20053;-83
2022/12/20 06:04:38;;;;;;;1999.90;999.90;;;13.60;99.90;;;;;;4997589;28;20049;-82
2022/12/20 06:07:04;;;;;;;1999.90;999.90;;;13.70;99.90;;;;;;5000181;28;20512;-83
2022/12/20 06:09:31;;;;;;;1999.90;999.90;;;13.90;99.90;;;;;;5013569;28;20533;-80
2022/12/20 06:11:58;;;;;;;1999.90;999.90;;;13.60;99.90;;;;;;5014437;28;20056;-83
2022/12/20 06:14:24;;;;;;;1999.90;999.90;;;13.80;99.90;;;;;;5011175;28;20474;-81
2022/12/20 06:16:50;;;;;;;1999.90;999.90;;;13.90;99.90;;;;;;5023650;28;20564;-84
2022/12/20 06:19:16;;;;;;;1999.90;999.90;;;13.90;99.90;;;;;;5027694;28;20080;-85
2022/12/20 06:21:41;;;;;;;1999.90;999.90;;;14.60;99.90;;;;;;5008311;28;20398;-83
2022/12/20 06:24:07;;;;;;;1999.90;999.90;;;13.60;99.90;;;;;;5014460;28;20046;-84
2022/12/20 06:26:36;;;;;;;1999.90;999.90;;;13.70;99.90;;;;;;4998465;28;20482;-83
2022/12/20 06:29:06;;;;;;;1999.90;999.90;;;13.70;99.90;;;;;;5014690;28;20136;-84
2022/12/20 06:31:32;;;;;;;1999.90;999.90;;;13.50;99.90;;;;;;5011977;28;20452;-84
2022/12/20 06:33:58;;;;;;;1999.90;999.90;;;13.70;99.90;;;;;;5026596;28;20486;-85
2022/12/20 06:36:23;;;;;;;1999.90;999.90;;;13.80;99.90;;;;;;5013992;28;20045;-84
2022/12/20 06:38:49;;;;;;;1999.90;999.90;;;13.70;99.90;;;;;;5013839;28;20490;-83
2022/12/20 06:41:15;;;;;;;1999.90;999.90;;;13.60;99.90;;;;;;4998036;28;20056;-84
2022/12/20 06:43:41;;;;;;;1999.90;999.90;;;13.60;99.90;;;;;;5014291;28;20081;-86
2022/12/20 06:46:06;;;;;;;1999.90;999.90;;;13.90;99.90;;;;;;5026523;28;20155;-85
2022/12/20 06:48:32;;;;;;;1999.90;999.90;;;13.70;99.90;;;;;;5014332;28;20541;-83
2022/12/20 06:50:58;;;;;;;1999.90;999.90;;;13.60;99.90;;;;;;4998894;28;20072;-85
2022/12/20 06:53:24;;;;;;;1999.90;999.90;;;13.60;99.90;;;;;;4975321;28;1098753;-84
2022/12/20 06:55:50;;;;;;;1999.90;999.90;;;14.30;99.90;;;;;;5014843;28;20108;-85
2022/12/20 06:58:17;;;;;;;1999.90;999.90;;;14.30;99.90;;;;;;5013136;28;20486;-84
2022/12/20 07:00:43;;;;;;;1999.90;999.90;;;13.70;99.90;;;;;;5013838;28;20045;-84
2022/12/20 07:03:08;;;;;;;1999.90;999.90;;;14.10;99.90;;;;;;5011438;28;20049;-85
2022/12/20 07:05:34;;;;;;;1999.90;999.90;;;14.60;99.90;;;;;;5009431;28;20050;-84
2022/12/20 07:08:01;;;;;;;1999.90;999.90;;;15.40;99.90;;;;;;5008880;28;20085;-85
2022/12/20 07:10:27;;;;;;;1999.90;999.90;;;14.00;99.90;;;;;;5013701;28;20049;-83
2022/12/20 07:12:53;;;;;;;1999.90;999.90;;;14.20;99.90;;;;;;5007057;28;20064;-84
2022/12/20 07:15:20;;;;;;;1999.90;999.90;;;14.40;99.90;;;;;;5011800;28;20042;-85
2022/12/20 07:17:46;;;;;;;1999.90;999.90;;;14.60;99.90;;;;;;5009984;28;20045;-83
2022/12/20 07:20:13;;;;;;;1999.90;999.90;;;14.00;99.90;;;;;;5005100;28;20042;-84
2022/12/20 07:22:38;;;;;;;1999.90;999.90;;;14.30;99.90;;;;;;5012549;28;20033;-84
2022/12/20 07:25:04;;;;;;;1999.90;999.90;;;14.70;99.90;;;;;;5013005;28;20497;-85
2022/12/20 07:27:30;;;;;;;1999.90;999.90;;;14.00;99.90;;;;;;4990448;28;20119;-85
2022/12/20 07:29:55;;;;;;;1999.90;999.90;;;13.90;99.90;;;;;;5012154;28;20052;-86
2022/12/20 07:32:21;;;;;;;1999.90;999.90;;;14.80;99.90;;;;;;5010951;28;20046;-85
2022/12/20 07:34:47;;;;;;;1999.90;999.90;;;14.10;99.90;;;;;;5011881;28;20458;-84
2022/12/20 07:37:13;;;;;;;1999.90;999.90;;;14.00;99.90;;;;;;5009341;28;20050;-85
2022/12/20 07:39:41;;;;;;;1999.90;999.90;;;14.40;99.90;;;;;;4995536;28;20047;-85
2022/12/20 07:42:08;;;;;;;1999.90;999.90;;;14.20;99.90;;;;;;5011263;28;20073;-84
2022/12/20 07:44:34;;;;;;;1999.90;999.90;;;14.60;99.90;;;;;;4993145;28;20049;-83
2022/12/20 07:47:00;;;;;;;1999.90;999.90;;;14.00;99.90;;;;;;4975646;28;20038;-84
2022/12/20 07:49:25;;;;;;;1999.90;999.90;;;14.60;99.90;;;;;;5011074;28;20530;-83
2022/12/20 07:51:58;;;;;;;1999.90;999.90;;;14.90;99.90;;;;;;4995100;28;20041;-82
2022/12/20 07:54:30;;;;;;;1999.90;999.90;;;14.10;99.90;;;;;;5007107;28;20046;-82
2022/12/20 07:57:07;;;;;;;1999.90;999.90;;;14.90;99.90;;;;;;5010738;28;20420;-84
2022/12/20 07:59:40;;;;;;;1999.90;999.90;;;14.10;99.90;;;;;;5002281;28;20038;-84
2022/12/20 08:02:11;;;;;;;1999.90;999.90;;;14.80;99.90;;;;;;5010515;28;20042;-84
2022/12/20 08:04:37;;;;;;;1999.90;999.90;;;14.20;99.90;;;;;;5010856;28;20045;-84
2022/12/20 08:07:03;;;;;;;1999.90;999.90;;;14.20;99.90;;;;;;5003601;28;20091;-82
2022/12/20 08:09:34;;;;;;;1999.90;999.90;;;14.80;99.90;;;;;;5006487;28;20049;-82
2022/12/20 08:12:00;;;;;;;1999.90;999.90;;;14.10;99.90;;;;;;5008704;28;20084;-87
2022/12/20 08:14:25;;;;;;;1999.90;999.90;;;14.20;99.90;;;;;;4993654;28;20446;-83
2022/12/20 08:16:52;;;;;;;1999.90;999.90;;;13.90;99.90;;;;;;5010067;28;20049;-82
2022/12/20 08:19:18;;;;;;;1999.90;999.90;;;14.40;99.90;;;;;;5011515;28;20497;-83
2022/12/20 08:21:44;;;;;;;1999.90;999.90;;;14.00;99.90;;;;;;5011147;28;20058;-82
2022/12/20 08:24:09;;;;;;;1999.90;999.90;;;17.00;99.90;;;;;;5011580;28;20044;-82
2022/12/20 08:26:39;;;;;;;1999.90;999.90;;;14.20;99.90;;;;;;5010919;28;20094;-83
2022/12/20 08:29:05;;;;;;;1999.90;999.90;;;14.70;99.90;;;;;;4990828;28;20387;-84
2022/12/20 08:31:31;;;;;;;1999.90;999.90;;;14.10;99.90;;;;;;5003936;28;20045;-84
2022/12/20 08:33:56;;;;;;;1999.90;999.90;;;14.80;99.90;;;;;;4994729;28;20483;-85
2022/12/20 08:36:22;;;;;;;1999.90;999.90;;;14.50;99.90;;;;;;5008549;28;20254;-86
2022/12/20 08:38:48;;;;;;;1999.90;999.90;;;14.40;99.90;;;;;;5009149;28;20049;-83
2022/12/20 08:41:15;;;;;;;1999.90;999.90;;;14.00;99.90;;;;;;5011247;28;20089;-85
2022/12/20 08:43:41;;;;;;;1999.90;999.90;;;14.10;99.90;;;;;;5010418;28;20133;-85
2022/12/20 08:46:11;;;;;;;1999.90;999.90;;;14.10;99.90;;;;;;4989225;28;20129;-84
2022/12/20 08:48:37;;;;;;;1999.90;999.90;;;14.10;99.90;;;;;;5004573;28;20054;-84
2022/12/20 08:51:06;;;;;;;1999.90;999.90;;;14.00;99.90;;;;;;5009607;28;20081;-84
2022/12/20 08:53:33;;;;;;;1999.90;999.90;;;14.00;99.90;;;;;;5009743;28;20053;-84
2022/12/20 08:56:08;;;;;;;1999.90;999.90;;;14.90;99.90;;;;;;5010856;28;20053;-84
2022/12/20 08:58:34;;;;;;;1999.90;999.90;;;14.70;99.90;;;;;;5008769;28;20459;-83
2022/12/20 09:01:03;;;;;;;1999.90;999.90;;;14.70;99.90;;;;;;5008430;28;20045;-82
2022/12/20 09:03:30;;;;;;;1999.90;999.90;;;15.30;99.90;;;;;;4995223;28;20430;-82
2022/12/20 09:05:57;;;;;;;1999.90;999.90;;;12.60;99.90;;;;;;5012134;28;20038;-83
2022/12/20 09:08:22;;;;;;;1999.90;999.90;;;14.20;99.90;;;;;;5011072;28;20045;-84
2022/12/20 09:10:48;;;;;;;1999.90;999.90;;;14.70;99.90;;;;;;5009056;28;20116;-85
2022/12/20 09:13:14;;;;;;;1999.90;999.90;;;14.10;99.90;;;;;;5010970;28;20137;-84
2022/12/20 09:15:41;;;;;;;1999.90;999.90;;;14.30;99.90;;;;;;5009725;28;20140;-84
2022/12/20 09:18:07;;;;;;;1999.90;999.90;;;15.60;99.90;;;;;;5010261;28;20363;-82
2022/12/20 09:20:33;;;;;;;1999.90;999.90;;;16.10;99.90;;;;;;5010628;28;20049;-83
2022/12/20 09:22:59;;;;;;;1999.90;999.90;;;14.20;99.90;;;;;;4995030;28;20042;-83
2022/12/20 09:25:26;;;;;;;1999.90;999.90;;;14.90;99.90;;;;;;4992469;28;20506;-84
2022/12/20 09:27:54;;;;;;;1999.90;999.90;;;14.70;99.90;;;;;;5011354;28;20038;-83
2022/12/20 09:30:19;;;;;;;;;;;14.10;99.90;;;;;;5010247;28;20034;-85
2022/12/20 09:32:45;;;;;;;1999.90;999.90;;;14.70;99.90;;;;;;5010436;28;19972;-83
2022/12/20 09:35:11;;;;;;;1999.90;999.90;;;14.00;99.90;;;;;;5009954;28;20058;-82
2022/12/20 09:37:36;;;;;;;1999.90;999.90;;;14.10;99.90;;;;;;5008488;28;20378;-81
2022/12/20 09:40:03;;;;;;;1999.90;999.90;;;14.20;99.90;;;;;;4973691;28;20038;-81
2022/12/20 09:42:29;;;;;;;1999.90;999.90;;;14.20;99.90;;;;;;5012979;28;20355;-83
2022/12/20 09:45:07;;;;;;;1999.90;999.90;;;14.80;99.90;;;;;;5015104;28;20046;-83
2022/12/20 09:47:35;;;;;;;1999.90;999.90;;;14.60;99.90;;;;;;5006519;28;20104;-84
2022/12/20 09:50:01;;;;;;;;;;;14.20;99.90;;;;;;5013259;28;20042;-83
2022/12/20 09:52:27;;;;;;;1999.90;999.90;;;14.20;99.90;;;;;;5008147;28;19917;-84
2022/12/20 09:55:07;;;;;;;1999.90;999.90;;;14.30;99.90;;;;;;5000078;28;20057;-84
2022/12/20 09:57:46;;;;;;;1999.90;999.90;;;14.50;99.90;;;;;;5007436;28;20120;-84
2022/12/20 10:00:15;;;;;;;1999.90;999.90;;;14.60;99.90;;;;;;5013509;28;20042;-86
2022/12/20 10:02:41;;;;;;;1999.90;999.90;;;14.70;99.90;;;;;;5013504;28;20192;-82
2022/12/20 10:05:15;;;;;;;1999.90;999.90;;;14.40;99.90;;;;;;5012057;28;20444;-83
2022/12/20 10:07:51;;;;;;;1999.90;999.90;;;14.20;99.90;;;;;;5012912;28;20052;-84
2022/12/20 10:10:48;;;;;;;1999.90;999.90;;;14.60;99.90;;;;;;5009677;28;20065;-85
2022/12/20 10:13:21;;;;;;;1999.90;999.90;;;14.40;99.90;;;;;;4990808;28;20042;-84
2022/12/20 10:16:18;;;;;;;1999.90;999.90;;;14.10;99.90;;;;;;4996154;28;20054;-82
2022/12/20 10:19:15;;;;;;;1999.90;999.90;;;14.70;99.90;;;;;;5011704;28;20084;-85
2022/12/20 10:22:14;;;;;;;1999.90;999.90;;;14.70;99.90;;;;;;5011560;28;20034;-84
2022/12/20 10:24:44;;;;;;;1999.90;999.90;;;14.00;99.90;;;;;;4966590;28;20080;-84
2022/12/20 10:27:16;;;;;;;1999.90;999.90;;;14.70;99.90;;;;;;4996506;28;20050;-84
2022/12/20 10:29:43;;;;;;;1999.90;999.90;;;14.10;99.90;;;;;;4992835;28;20479;-85
2022/12/20 10:32:15;;;;;;;1999.90;999.90;;;14.10;99.90;;;;;;5009243;28;20506;-84
2022/12/20 10:34:58;;;;;;;1999.90;999.90;;;13.90;99.90;;;;;;5026557;28;20050;-84
2022/12/20 10:37:23;;;;;;;1999.90;999.90;;;14.00;99.90;;;;;;4994132;28;20037;-84
2022/12/20 10:39:52;;;;;;;1999.90;999.90;;;14.30;99.90;;;;;;4987663;28;20471;-85
2022/12/20 10:42:37;;;;;;;1999.90;999.90;;;16.00;99.90;;;;;;4994571;28;20421;-84
2022/12/20 10:45:26;;;;;;;1999.90;999.90;;;15.30;99.90;;;;;;5010894;28;20133;-86
2022/12/20 10:47:59;;;;;;;1999.90;999.90;;;14.60;99.90;;;;;;5007694;28;20038;-83
2022/12/20 10:50:25;;;;;;;1999.90;999.90;;;14.60;99.90;;;;;;5005937;28;20311;-83
2022/12/20 10:53:18;;;;;;;1999.90;999.90;;;14.20;99.90;;;;;;5013678;28;20363;-85
2022/12/20 10:55:43;;;;;;;1999.90;999.90;;;14.70;99.90;;;;;;5015613;28;20057;-84
2022/12/20 10:58:17;;;;;;;1999.90;999.90;;;14.30;99.90;;;;;;5016266;28;20041;-84
2022/12/20 11:00:44;;;;;;;1999.90;999.90;;;14.50;99.90;;;;;;5013182;28;20041;-83
2022/12/20 11:03:17;;;;;;;1999.90;999.90;;;14.70;99.90;;;;;;4998526;28;20112;-86
2022/12/20 11:05:55;;;;;;;1999.90;999.90;;;14.70;99.90;;;;;;5031023;28;20041;-84
2022/12/20 11:08:23;;;;;;;1999.90;999.90;;;13.90;99.90;;;;;;4996601;28;20038;-85
2022/12/20 11:10:50;;;;;;;1999.90;999.90;;;14.00;99.90;;;;;;5002800;28;20048;-84
2022/12/20 11:13:28;;;;;;;1999.90;999.90;;;14.30;99.90;;;;;;5008013;28;20053;-82
2022/12/20 11:15:56;;;;;;;1999.90;999.90;;;14.00;99.90;;;;;;5013057;28;20424;-84
2022/12/20 11:18:50;;;;;;;1999.90;999.90;;;14.10;99.90;;;;;;5016231;28;20045;-82
2022/12/20 11:21:41;;;;;;;1999.90;999.90;;;14.60;99.90;;;;;;5015305;28;20045;-82
2022/12/20 11:24:19;;;;;;;1999.90;999.90;;;14.90;99.90;;;;;;5016289;28;20049;-83
2022/12/20 11:27:14;;;;;;;1999.90;999.90;;;14.10;99.90;;;;;;5014806;28;20282;-84
2022/12/20 11:29:40;;;;;;;1999.90;999.90;;;14.10;99.90;;;;;;5015766;28;20049;-84
2022/12/20 11:32:28;;;;;;;1999.90;999.90;;;15.00;99.90;;;;;;5031122;28;20132;-82
2022/12/20 11:35:12;;;;;;;1999.90;999.90;;;14.90;99.90;;;;;;5010510;28;20071;-83
2022/12/20 11:38:06;;;;;;;1999.90;999.90;;;14.20;99.90;;;;;;5014328;28;20482;-83
2022/12/20 11:40:37;;;;;;;1999.90;999.90;;;15.00;99.90;;;;;;5033107;28;20135;-82
2022/12/20 11:43:37;;;;;;;1999.90;999.90;;;14.50;99.90;;;;;;5015306;28;20477;-83
2022/12/20 11:46:47;;;;;;;1999.90;999.90;;;14.20;99.90;;;;;;5013518;28;20041;-82
2022/12/20 11:49:50;;;;;;;1999.90;999.90;;;14.20;99.90;;;;;;5032585;28;20046;-84
2022/12/20 11:52:34;;;;;;;1999.90;999.90;;;15.00;99.90;;;;;;5014057;28;20037;-84
2022/12/20 11:55:12;;;;;;;1999.90;999.90;;;14.40;99.90;;;;;;5015243;28;20045;-83
2022/12/20 11:58:13;;;;;;;1999.90;999.90;;;14.60;99.90;;;;;;5013245;28;20041;-84
2022/12/20 12:00:45;;;;;;;1999.90;999.90;;;14.90;99.90;;;;;;5032767;28;20129;-84
2022/12/20 12:03:40;;;;;;;1999.90;999.90;;;14.20;99.90;;;;;;5013854;28;20037;-82
2022/12/20 12:06:09;;;;;;;1999.90;999.90;;;15.00;99.90;;;;;;5014551;28;20132;-83
2022/12/20 12:08:52;;;;;;;1999.90;999.90;;;14.50;99.90;;;;;;5014145;28;20049;-82
2022/12/20 12:11:25;;;;;;;1999.90;999.90;;;14.30;99.90;;;;;;5013933;28;20152;-82
2022/12/20 12:13:52;;;;;;;1999.90;999.90;;;14.40;99.90;;;;;;5003087;28;20208;-84
2022/12/20 12:16:36;;;;;;;1999.90;999.90;;;15.60;99.90;;;;;;4996887;28;20466;-84
2022/12/20 12:19:02;;;;;;;1999.90;999.90;;;15.10;99.90;;;;;;5011688;28;20065;-84
2022/12/20 12:21:36;;;;;;;1999.90;999.90;;;15.10;99.90;;;;;;4994787;28;20369;-85
2022/12/20 12:24:14;;;;;;;1999.90;999.90;;;14.60;99.90;;;;;;5030568;28;20038;-82
2022/12/20 12:26:40;;;;;;;1999.90;999.90;;;14.60;99.90;;;;;;5010267;28;20504;-84